Time;durP1;ratioP1;P1;durP2;ratioP2;P2;SDS_P1;SDS_P2;PMS_P1;PMS_P2;Temp;Humidity;BMP_temperature;BMP_pressure;BME280_temperature;BME280_humidity;BME280_pressure;Samples;Min_cycle;Max_cycle;Signal;HPM_P1;HPM_P2
2022/12/15 00:40:40;;;;;;;43.03;19.77;;;;;;;-6.79;100.00;99450.50;5023416;28;20091;-71
2022/12/15 00:43:05;;;;;;;;;;;;;;;-6.77;100.00;99433.06;5022336;28;20034;-70
2022/12/15 00:48:14;;;;;;;36.92;18.00;;;;;;;-6.84;100.00;99396.25;5011230;28;20049;-71
2022/12/15 00:50:51;;;;;;;;;;;;;;;-6.75;100.00;99420.84;5021077;28;20030;-71
2022/12/15 01:20:37;;;;;;;40.90;19.38;;;;;;;-6.24;100.00;99665.63;5022651;28;20064;-70
2022/12/15 01:23:03;;;;;;;;;;;;;;;-6.18;100.00;99693.88;5007213;28;20778;-71
2022/12/15 01:25:28;;;;;;;;;;;;;;;-6.26;100.00;99690.00;5012178;28;19913;-72
2022/12/15 01:27:53;;;;;;;38.23;17.37;;;;;;;-6.29;100.00;99687.59;5018762;28;19984;-71
2022/12/15 01:30:20;;;;;;;;;;;;;;;-6.34;100.00;99686.97;5006006;28;20135;-71
2022/12/15 01:32:46;;;;;;;45.67;17.20;;;;;;;-6.37;100.00;99695.75;5001001;28;19909;-71
2022/12/15 01:35:11;;;;;;;;;;;;;;;-6.38;100.00;99694.94;5020887;28;20041;-71
2022/12/15 01:37:37;;;;;;;44.45;18.35;;;;;;;-6.47;100.00;99689.38;5004978;28;19913;-71
2022/12/15 01:42:48;;;;;;;39.63;17.73;;;;;;;-6.54;100.00;99701.84;5018617;28;19920;-71
2022/12/15 01:45:22;;;;;;;;;;;;;;;-6.54;100.00;99683.66;5020450;28;20025;-71
2022/12/15 01:47:51;;;;;;;40.83;17.53;;;;;;;-6.53;100.00;99685.38;5000720;28;20023;-71
2022/12/15 01:50:18;;;;;;;44.35;18.83;;;;;;;-6.60;100.00;99658.03;5015445;28;20684;-71
2022/12/15 01:52:45;;;;;;;51.05;19.58;;;;;;;-6.56;100.00;99671.69;5018670;28;20045;-71
2022/12/15 01:55:10;;;;;;;47.17;19.75;;;;;;;-6.54;100.00;99668.09;5020056;28;20034;-72
2022/12/15 01:57:36;;;;;;;;;;;;;;;-6.51;100.00;99662.72;5005675;28;20040;-71
2022/12/15 02:00:03;;;;;;;;;;;;;;;-6.45;100.00;99666.78;5017913;28;20381;-71
2022/12/15 02:02:34;;;;;;;41.00;19.33;;;;;;;-6.54;100.00;99636.94;5019938;28;20005;-71
2022/12/15 02:04:59;;;;;;;45.45;19.98;;;;;;;-6.54;100.00;99626.53;5018266;28;20069;-70
2022/12/15 02:07:25;;;;;;;;;;;;;;;-6.56;100.00;99615.41;5021570;28;20029;-71
2022/12/15 02:09:54;;;;;;;39.75;19.75;;;;;;;-6.48;100.00;99626.22;5018558;28;19980;-70
2022/12/15 02:12:31;;;;;;;42.88;18.55;;;;;;;-6.54;100.00;99618.75;5023058;28;20068;-70
2022/12/15 02:15:16;;;;;;;32.78;18.27;;;;;;;-6.57;100.00;99611.13;5018526;28;20048;-70
2022/12/15 02:17:56;;;;;;;47.58;19.15;;;;;;;-6.52;100.00;99613.50;5019294;28;20056;-72
2022/12/15 02:20:49;;;;;;;41.03;19.10;;;;;;;-6.49;100.00;99610.72;5015934;28;20072;-71
2022/12/15 02:23:42;;;;;;;40.17;18.13;;;;;;;-6.49;100.00;99605.53;5020941;28;20113;-71
2022/12/15 02:26:43;;;;;;;40.45;18.60;;;;;;;-6.53;100.00;99602.28;5020497;28;20036;-71
2022/12/15 02:29:33;;;;;;;45.95;17.88;;;;;;;-6.55;100.00;99611.06;5023215;28;20069;-71
2022/12/15 02:32:06;;;;;;;40.00;17.95;;;;;;;-6.45;100.00;99622.63;5020370;28;20037;-71
2022/12/15 02:34:51;;;;;;;40.05;17.63;;;;;;;-6.46;100.00;99613.13;5007250;28;20526;-71
2022/12/15 02:37:17;;;;;;;;;;;;;;;-6.45;100.00;99615.66;5009820;28;20037;-70
2022/12/15 02:39:43;;;;;;;38.40;17.20;;;;;;;-6.45;100.00;99620.03;5018791;28;20058;-71
2022/12/15 02:42:09;;;;;;;40.53;17.95;;;;;;;-6.45;100.00;99605.28;5019402;28;20060;-71
2022/12/15 02:44:38;;;;;;;40.85;19.05;;;;;;;-6.43;100.00;99602.59;5019647;28;20046;-71
2022/12/15 02:47:15;;;;;;;38.22;18.98;;;;;;;-6.45;100.00;99594.88;5005866;28;20417;-71
2022/12/15 02:49:59;;;;;;;47.28;20.02;;;;;;;-6.44;100.00;99585.34;5018620;28;20044;-71
2022/12/15 02:53:03;;;;;;;39.72;17.45;;;;;;;-6.47;100.00;99591.53;5015737;28;20045;-71
2022/12/15 02:55:45;;;;;;;39.58;18.80;;;;;;;-6.50;100.00;99578.72;4959425;28;20173;-71
2022/12/15 02:58:28;;;;;;;39.03;19.30;;;;;;;-6.54;100.00;99582.41;4950222;28;20400;-71
2022/12/15 03:01:07;;;;;;;48.53;17.90;;;;;;;-6.58;100.00;99573.09;4969401;28;20043;-71
2022/12/15 03:03:34;;;;;;;41.50;17.85;;;;;;;-6.66;100.00;99560.53;4967224;28;20042;-71
2022/12/15 03:06:01;;;;;;;41.60;17.83;;;;;;;-6.60;100.00;99575.78;4967310;28;20039;-71
2022/12/15 03:08:26;;;;;;;40.17;18.25;;;;;;;-6.68;100.00;99566.72;4967262;28;20094;-71
2022/12/15 03:10:53;;;;;;;;;;;;;;;-6.63;100.00;99564.72;4967632;28;20209;-71
2022/12/15 03:13:21;;;;;;;42.08;19.17;;;;;;;-6.71;100.00;99557.34;4967403;28;19914;-71
2022/12/15 03:15:46;;;;;;;;;;;;;;;-6.69;100.00;99549.50;4956068;28;20055;-71
2022/12/15 03:18:11;;;;;;;38.83;18.67;;;;;;;-6.65;100.00;99561.38;4950760;28;20028;-71
2022/12/15 03:20:37;;;;;;;;;;;;;;;-6.65;100.00;99562.22;4967308;28;20042;-71
2022/12/15 03:23:02;;;;;;;;;;;;;;;-6.70;100.00;99553.81;4967626;28;19910;-71
2022/12/15 03:25:28;;;;;;;46.07;19.53;;;;;;;-6.72;100.00;99554.81;4967120;28;19961;-71
2022/12/15 03:27:53;;;;;;;41.05;18.33;;;;;;;-6.75;100.00;99555.00;4967124;28;20046;-71
2022/12/15 03:30:19;;;;;;;;;;;;;;;-6.76;100.00;99561.13;4967332;28;20070;-70
2022/12/15 03:32:45;;;;;;;38.97;17.02;;;;;;;-6.77;100.00;99559.44;5004487;28;19924;-71
2022/12/15 03:35:11;;;;;;;;;;;;;;;-6.76;100.00;99569.75;5026072;28;20112;-71
2022/12/15 03:37:37;;;;;;;38.40;18.10;;;;;;;-6.67;100.00;99589.16;5022541;28;20472;-70
2022/12/15 03:40:02;;;;;;;;;;;;;;;-6.72;100.00;99581.66;5021409;28;20042;-71
2022/12/15 03:45:12;;;;;;;40.97;20.23;;;;;;;-6.72;100.00;99596.34;5023389;28;20045;-71
2022/12/15 03:47:40;;;;;;;;;;;;;;;-6.75;100.00;99592.16;5008189;28;20025;-71
2022/12/15 03:50:06;;;;;;;40.15;18.08;;;;;;;-6.76;100.00;99594.88;5022699;28;19921;-71
2022/12/15 03:52:32;;;;;;;;;;;;;;;-6.81;100.00;99597.72;5023400;28;20041;-71
2022/12/15 03:54:57;;;;;;;38.75;18.08;;;;;;;-6.83;100.00;99594.34;5019670;28;20424;-71
2022/12/15 03:57:22;;;;;;;;;;;;;;;-6.83;100.00;99600.38;5023760;28;20042;-70
2022/12/15 03:59:47;;;;;;;;;;;;;;;-6.88;100.00;99591.16;5021748;28;19913;-71
2022/12/15 04:02:13;;;;;;;37.20;17.13;;;;;;;-6.91;100.00;99586.94;5023427;28;19923;-70
2022/12/15 04:04:38;;;;;;;39.08;17.95;;;;;;;-6.90;100.00;99593.81;5024306;28;20037;-70
2022/12/15 04:07:03;;;;;;;;;;;;;;;-6.86;100.00;99610.06;5020979;28;20038;-71
2022/12/15 04:09:29;;;;;;;;;;;;;;;-6.86;100.00;99610.91;5023148;28;20007;-71
2022/12/15 04:11:54;;;;;;;43.97;18.00;;;;;;;-6.84;100.00;99611.66;5020399;28;19913;-71
2022/12/15 04:14:19;;;;;;;;;;;;;;;-6.91;100.00;99599.91;5023427;28;20034;-71
2022/12/15 04:16:44;;;;;;;;;;;;;;;-6.91;100.00;99604.28;5021140;28;20354;-71
2022/12/15 04:21:54;;;;;;;39.60;17.80;;;;;;;-6.86;100.00;99623.91;5003440;28;20041;-70
2022/12/15 05:32:36;;;;;;;43.53;19.42;;;;;;;-7.04;100.00;99693.13;5012236;28;20040;-70
2022/12/15 05:35:02;;;;;;;;;;;;;;;-7.01;100.00;99711.13;5020215;28;20029;-72
2022/12/15 05:37:27;;;;;;;39.92;18.77;;;;;;;-6.93;100.00;99708.19;5008171;28;20314;-70
2022/12/15 05:39:52;;;;;;;;;;;;;;;-6.85;100.00;99718.16;5023808;28;20959;-70
2022/12/15 05:42:18;;;;;;;;;;;;;;;-6.81;100.00;99727.47;4991209;28;20675;-75
2022/12/15 05:44:43;;;;;;;46.60;18.20;;;;;;;-6.81;100.00;99733.50;4951741;28;19917;-71
2022/12/15 05:47:10;;;;;;;;;;;;;;;-6.86;100.00;99726.84;5021027;28;20086;-71
2022/12/15 05:49:35;;;;;;;48.60;18.52;;;;;;;-6.84;100.00;99744.03;5004494;28;19956;-71
2022/12/15 05:52:01;;;;;;;;;;;;;;;-6.81;100.00;99746.50;5019487;28;20107;-71
2022/12/15 05:54:26;;;;;;;;;;;;;;;-6.87;100.00;99751.97;5003905;28;19913;-71
2022/12/15 05:56:51;;;;;;;46.83;19.43;;;;;;;-6.85;100.00;99744.94;5005521;28;20391;-72
2022/12/15 05:59:17;;;;;;;;;;;;;;;-6.89;100.00;99748.59;5009406;28;20645;-71
2022/12/15 06:01:43;;;;;;;38.53;18.00;;;;;;;-6.88;100.00;99772.84;5019154;28;20396;-71
2022/12/15 06:04:11;;;;;;;47.95;19.30;;;;;;;-6.96;100.00;99769.75;5007491;28;20052;-70
2022/12/15 06:06:37;;;;;;;52.13;20.70;;;;;;;-6.99;100.00;99765.56;5019877;28;20028;-71
2022/12/15 06:09:02;;;;;;;;;;;;;;;-7.02;100.00;99771.75;5019821;28;20041;-71
2022/12/15 06:11:28;;;;;;;42.25;19.33;;;;;;;-7.01;100.00;99777.78;5020598;28;19987;-71
2022/12/15 06:13:54;;;;;;;44.58;19.60;;;;;;;-7.15;100.00;99770.66;5018128;28;20108;-71
2022/12/15 06:16:21;;;;;;;42.05;17.35;;;;;;;-7.25;100.00;99775.44;5006993;28;20483;-71
2022/12/15 06:18:49;;;;;;;46.95;19.10;;;;;;;-7.38;100.00;99763.97;5000912;28;20506;-71
2022/12/15 06:21:17;;;;;;;38.92;17.70;;;;;;;-7.46;100.00;99764.34;5020514;28;20094;-71
2022/12/15 06:23:43;;;;;;;37.85;17.23;;;;;;;-7.48;100.00;99767.91;5021407;28;20430;-71
2022/12/15 06:26:10;;;;;;;43.10;18.65;;;;;;;-7.52;100.00;99767.22;5019570;28;20187;-71
2022/12/15 06:28:36;;;;;;;44.90;18.05;;;;;;;-7.56;100.00;99762.25;5019284;28;20515;-71
2022/12/15 06:31:02;;;;;;;;;;;;;;;-7.61;100.00;99761.63;5019173;28;20172;-70
2022/12/15 06:33:29;;;;;;;39.72;18.48;;;;;;;-7.56;100.00;99780.38;5020459;28;19962;-71
2022/12/15 06:35:54;;;;;;;44.17;18.35;;;;;;;-7.64;100.00;99768.63;5017767;28;20085;-71
2022/12/15 06:38:20;;;;;;;;;;;;;;;-7.70;100.00;99770.69;5020884;28;20076;-71
2022/12/15 06:40:53;;;;;;;43.63;20.05;;;;;;;-7.72;100.00;99762.13;5017235;28;19913;-71
2022/12/15 06:43:18;;;;;;;46.85;20.67;;;;;;;-7.49;100.00;99781.78;4999447;28;20083;-70
2022/12/15 06:45:46;;;;;;;;;;;;;;;-7.49;100.00;99797.34;5018105;28;20068;-71
2022/12/15 06:48:12;;;;;;;46.90;20.45;;;;;;;-7.11;100.00;99823.25;5006047;28;19913;-71
2022/12/15 06:50:37;;;;;;;;;;;;;;;-7.12;100.00;99842.31;5018628;28;20125;-71
2022/12/15 06:53:02;;;;;;;;;;;;;;;-7.28;100.00;99827.47;5017454;28;19913;-71
2022/12/15 06:55:28;;;;;;;48.45;21.17;;;;;;;-7.23;100.00;99841.06;5019147;28;20765;-70
2022/12/15 06:57:53;;;;;;;;;;;;;;;-7.30;100.00;99834.50;5017381;28;20133;-71
2022/12/15 07:00:18;;;;;;;;;;;;;;;-7.37;100.00;99842.63;5019549;28;19979;-70
2022/12/15 07:02:44;;;;;;;45.35;20.95;;;;;;;-7.29;100.00;99849.13;5004223;28;19913;-70
2022/12/15 07:05:09;;;;;;;;;;;;;;;-6.98;100.00;99881.41;5017505;28;20112;-71
2022/12/15 07:07:34;;;;;;;;;;;;;;;-6.84;100.00;99881.59;4966231;28;20154;-70
2022/12/15 07:10:00;;;;;;;56.83;23.10;;;;;;;-6.67;100.00;99901.56;4939254;28;20160;-70
2022/12/15 07:12:25;;;;;;;66.32;25.98;;;;;;;-6.38;100.00;99917.47;4982615;28;20044;-71
2022/12/15 07:14:50;;;;;;;;;;;;;;;-6.29;100.00;99932.63;5016652;28;20128;-70
2022/12/15 07:17:16;;;;;;;59.05;24.55;;;;;;;-6.18;100.00;99945.06;5019698;28;20015;-71
2022/12/15 07:19:41;;;;;;;;;;;;;;;-6.14;100.00;99953.56;5003368;28;20049;-71
2022/12/15 07:22:06;;;;;;;;;;;;;;;-6.27;100.00;99935.16;5019106;28;19914;-71
2022/12/15 07:24:32;;;;;;;52.38;23.50;;;;;;;-6.25;100.00;99954.06;5006845;28;20371;-71
2022/12/15 07:26:57;;;;;;;;;;;;;;;-6.21;100.00;99948.66;5017664;28;20105;-71
2022/12/15 07:29:23;;;;;;;;;;;;;;;-6.06;100.00;99960.06;5020184;28;19912;-71
2022/12/15 07:31:48;;;;;;;51.70;24.02;;;;;;;-6.07;100.00;99957.53;5016433;28;20003;-70
2022/12/15 07:34:13;;;;;;;;;;;;;;;-5.94;100.00;99963.81;5019132;28;20038;-75
2022/12/15 07:36:39;;;;;;;63.10;22.35;;;;;;;-5.84;100.00;99969.34;5010578;28;19914;-74
2022/12/15 07:39:04;;;;;;;;;;;;;;;-5.76;100.00;99985.41;5004169;28;20042;-70
2022/12/15 07:41:30;;;;;;;57.03;24.58;;;;;;;-5.69;100.00;99994.56;5010198;28;20378;-70
2022/12/15 07:43:56;;;;;;;;;;;;;;;-5.63;100.00;99994.25;5014068;28;20057;-73
2022/12/15 07:46:22;;;;;;;61.70;23.75;;;;;;;-5.59;100.00;100003.59;5007933;28;19917;-75
2022/12/15 07:48:48;;;;;;;52.67;23.52;;;;;;;-5.54;100.00;100004.19;5020275;28;20052;-73
2022/12/15 07:51:13;;;;;;;;;;;;;;;-5.43;100.00;100010.59;5006435;28;20068;-70
2022/12/15 07:53:38;;;;;;;50.13;23.90;;;;;;;-5.37;100.00;100000.72;4993033;28;20445;-69
2022/12/15 07:56:04;;;;;;;;;;;;;;;-5.22;100.00;100009.50;5021456;28;20297;-73
2022/12/15 07:58:30;;;;;;;;;;;;;;;-5.43;100.00;100001.06;5024276;28;19959;-70
2022/12/15 08:01:00;;;;;;;49.95;22.40;;;;;;;-5.51;100.00;99993.63;4993286;28;20000;-71
2022/12/15 08:03:26;;;;;;;55.88;22.05;;;;;;;-5.69;100.00;99972.91;5008435;28;20506;-71
2022/12/15 08:05:52;;;;;;;;;;;;;;;-5.60;100.00;99986.28;5005419;28;20042;-71
2022/12/15 08:08:18;;;;;;;47.25;22.13;;;;;;;-5.58;100.00;99971.47;5022771;28;19963;-71
2022/12/15 08:10:43;;;;;;;;;;;;;;;-5.63;100.00;99967.41;5025414;28;20041;-71
2022/12/15 08:13:08;;;;;;;44.88;19.83;;;;;;;-5.64;100.00;99960.53;5024319;28;19912;-71
2022/12/15 08:15:35;;;;;;;;;;;;;;;-5.62;100.00;99950.88;5025292;28;20068;-71
2022/12/15 08:18:01;;;;;;;47.67;20.10;;;;;;;-5.89;100.00;99934.94;5012061;28;19971;-71
2022/12/15 08:20:26;;;;;;;;;;;;;;;-5.97;100.00;99924.97;5023267;28;20426;-72
2022/12/15 08:22:51;;;;;;;;;;;;;;;-5.81;100.00;99943.19;5021103;28;19920;-71
2022/12/15 08:25:17;;;;;;;81.85;29.95;;;;;;;-5.69;100.00;99939.94;5023197;28;19909;-71
2022/12/15 08:27:42;;;;;;;;;;;;;;;-5.49;100.00;99961.50;5022039;28;20042;-71
2022/12/15 08:30:08;;;;;;;46.55;20.42;;;;;;;-5.41;100.00;99961.94;5022398;28;19917;-74
2022/12/15 08:32:33;;;;;;;;;;;;;;;-5.27;100.00;99958.63;5023038;28;20102;-70
2022/12/15 08:34:58;;;;;;;46.92;20.48;;;;;;;-5.31;100.00;99963.16;5021070;28;19970;-70
2022/12/15 08:37:24;;;;;;;;;;;;;;;-5.16;100.00;99967.53;5023723;28;20226;-72
2022/12/15 08:39:49;;;;;;;45.70;20.20;;;;;;;-4.98;100.00;99970.09;5005150;28;19913;-72
2022/12/15 08:42:14;;;;;;;;;;;;;;;-4.94;100.00;99976.78;5023237;28;20103;-72
2022/12/15 08:44:40;;;;;;;55.35;22.77;;;;;;;-4.90;100.00;99975.72;5021244;28;19909;-74
2022/12/15 08:47:06;;;;;;;43.22;21.00;;;;;;;-4.89;100.00;99965.22;5020305;28;20042;-73
2022/12/15 08:49:31;;;;;;;49.80;21.65;;;;;;;-4.75;100.00;99972.28;5022752;28;20386;-73
2022/12/15 08:51:57;;;;;;;46.95;20.30;;;;;;;-4.69;100.00;99966.72;5004882;28;20045;-71
2022/12/15 08:54:22;;;;;;;;;;;;;;;-4.52;100.00;99978.84;5024675;28;20124;-71
2022/12/15 08:56:48;;;;;;;38.50;18.93;;;;;;;-4.67;100.00;99964.88;5019711;28;20083;-71
2022/12/15 08:59:13;;;;;;;;;;;;;;;-4.88;100.00;99951.25;5022363;28;20029;-70
2022/12/15 09:01:39;;;;;;;42.58;19.08;;;;;;;-4.99;100.00;99937.16;5020916;28;20382;-71
2022/12/15 09:04:04;;;;;;;;;;;;;;;-4.86;100.00;99950.34;5020329;28;20079;-71
2022/12/15 09:06:32;;;;;;;46.65;22.52;;;;;;;-4.93;100.00;99963.69;5004816;28;19913;-71
2022/12/15 09:09:01;;;;;;;44.10;20.58;;;;;;;-4.95;100.00;99969.91;5019924;28;20080;-72
2022/12/15 09:11:28;;;;;;;56.80;22.52;;;;;;;-5.01;100.00;99967.63;5008821;28;20021;-71
2022/12/15 09:13:54;;;;;;;44.38;20.50;;;;;;;-4.91;100.00;99982.69;5006390;28;20037;-71
2022/12/15 09:16:20;;;;;;;47.63;20.80;;;;;;;-4.89;100.00;99987.81;5022133;28;20034;-71
2022/12/15 09:18:48;;;;;;;44.30;21.27;;;;;;;-4.75;100.00;99997.50;5019891;28;20033;-72
2022/12/15 09:21:16;;;;;;;41.53;19.73;;;;;;;-4.65;100.00;99992.63;5021954;28;20057;-72
2022/12/15 09:23:42;;;;;;;45.20;22.00;;;;;;;-4.62;100.00;99992.44;5020445;28;20029;-71
2022/12/15 09:26:13;;;;;;;42.90;20.77;;;;;;;-4.59;100.00;99987.06;5021021;28;20701;-71
2022/12/15 09:28:39;;;;;;;41.97;20.92;;;;;;;-4.58;100.00;99994.78;5020900;28;20041;-71
2022/12/15 09:31:07;;;;;;;47.88;19.02;;;;;;;-4.43;100.00;100000.91;5020506;28;20459;-71
2022/12/15 09:33:33;;;;;;;44.40;21.45;;;;;;;-4.55;100.00;99992.00;5021598;28;20517;-72
2022/12/15 09:35:58;;;;;;;48.85;23.30;;;;;;;-4.72;100.00;99977.31;5019732;28;20057;-71
2022/12/15 09:38:24;;;;;;;48.17;22.67;;;;;;;-4.62;100.00;99989.84;5021874;28;20144;-72
2022/12/15 09:40:49;;;;;;;49.88;21.58;;;;;;;-4.69;100.00;99982.34;5019050;28;20067;-71
2022/12/15 09:43:20;;;;;;;50.47;21.10;;;;;;;-4.81;100.00;99976.97;5021778;28;20029;-71
2022/12/15 09:45:51;;;;;;;49.15;22.20;;;;;;;-4.79;100.00;99975.97;5006830;28;20052;-71
2022/12/15 09:48:21;;;;;;;44.15;20.60;;;;;;;-4.72;100.00;99989.50;5016273;28;20034;-71
2022/12/15 09:50:51;;;;;;;46.17;21.48;;;;;;;-4.79;100.00;99990.75;5019255;28;20037;-71
2022/12/15 09:53:18;;;;;;;48.92;22.08;;;;;;;-4.71;100.00;99996.38;5016460;28;20501;-71
2022/12/15 09:55:52;;;;;;;47.40;22.52;;;;;;;-4.70;100.00;99996.31;5020052;28;20025;-71
2022/12/15 09:58:43;;;;;;;48.28;23.25;;;;;;;-4.66;100.00;99991.75;5014970;28;20030;-71
2022/12/15 10:01:24;;;;;;;59.40;28.05;;;;;;;-4.68;100.00;99999.66;5015891;28;21081;-70
2022/12/15 10:04:16;;;;;;;63.75;28.25;;;;;;;-4.61;100.00;100010.59;5019031;28;20037;-74
2022/12/15 10:06:49;;;;;;;52.10;24.67;;;;;;;-4.57;100.00;100004.28;5017431;28;20068;-74
2022/12/15 10:09:26;;;;;;;62.45;26.77;;;;;;;-4.68;100.00;100004.88;5019240;28;20041;-73
2022/12/15 10:11:58;;;;;;;57.63;24.65;;;;;;;-4.57;100.00;100014.69;5020505;28;20100;-73
2022/12/15 10:14:38;;;;;;;50.42;23.05;;;;;;;-4.74;100.00;100020.81;5021315;28;20095;-72
2022/12/15 10:17:24;;;;;;;53.70;25.30;;;;;;;-4.66;100.00;100023.00;5019820;28;20145;-69
2022/12/15 10:20:20;;;;;;;53.58;23.75;;;;;;;-4.65;100.00;100034.28;5005203;28;20037;-72
2022/12/15 10:22:47;;;;;;;66.75;27.08;;;;;;;-4.63;100.00;100037.66;5017710;28;20033;-72
2022/12/15 10:25:18;;;;;;;63.25;27.25;;;;;;;-4.53;100.00;100037.06;5020857;28;20067;-73
2022/12/15 10:28:08;;;;;;;57.40;26.85;;;;;;;-4.44;100.00;100042.72;5004228;28;20289;-72
2022/12/15 10:30:34;;;;;;;58.00;25.67;;;;;;;-4.30;100.00;100054.03;5013755;28;20045;-71
2022/12/15 10:33:15;;;;;;;56.88;25.95;;;;;;;-4.31;100.00;100052.38;5021056;28;20034;-73
2022/12/15 10:35:42;;;;;;;51.10;25.27;;;;;;;-4.12;100.00;100049.56;5001975;28;20198;-73
2022/12/15 10:38:22;;;;;;;57.13;25.67;;;;;;;-4.11;100.00;100055.63;5007064;28;20124;-69
2022/12/15 10:40:49;;;;;;;55.60;27.38;;;;;;;-4.02;100.00;100070.75;4989160;28;20064;-70
2022/12/15 10:43:33;;;;;;;59.47;24.50;;;;;;;-3.97;100.00;100071.34;5007300;28;20033;-73
2022/12/15 10:46:03;;;;;;;56.83;24.23;;;;;;;-3.85;100.00;100073.25;5018837;28;20042;-72
2022/12/15 10:48:29;;;;;;;54.70;26.42;;;;;;;-3.70;100.00;100075.91;5002556;28;20053;-71
2022/12/15 10:51:13;;;;;;;47.80;22.50;;;;;;;-3.61;100.00;100076.22;5018057;28;20034;-71
2022/12/15 10:53:42;;;;;;;51.05;23.73;;;;;;;-3.43;100.00;100074.31;5019660;28;20140;-69
2022/12/15 10:56:08;;;;;;;52.85;23.90;;;;;;;-3.57;100.00;100057.78;4989398;28;20069;-73
2022/12/15 10:58:47;;;;;;;;;;;;;;;-3.56;100.00;100054.22;5005247;28;20048;-70
2022/12/15 11:01:34;;;;;;;60.97;24.98;;;;;;;-3.41;100.00;100048.97;5020174;28;19913;-73
2022/12/15 11:03:59;;;;;;;57.92;26.27;;;;;;;-3.41;100.00;100037.69;5018823;28;20044;-74
2022/12/15 11:06:28;;;;;;;57.65;24.98;;;;;;;-3.48;100.00;100036.38;5020365;28;20029;-73
2022/12/15 11:08:56;;;;;;;44.58;22.17;;;;;;;-3.39;100.00;100033.22;5017973;28;20026;-69
2022/12/15 11:14:26;;;;;;;41.72;20.67;;;;;;;-3.47;100.00;100015.38;5014117;28;20040;-69
2022/12/15 11:16:54;;;;;;;41.95;21.42;;;;;;;-3.72;100.00;99999.47;5001268;28;20104;-70
2022/12/15 11:19:41;;;;;;;44.58;21.08;;;;;;;-3.72;100.00;99999.47;5023394;28;20108;-70
2022/12/15 11:22:15;;;;;;;46.38;20.88;;;;;;;-3.50;100.00;99996.47;4994093;28;20053;-73
2022/12/15 11:24:45;;;;;;;49.47;20.98;;;;;;;-3.58;100.00;99999.53;4999926;28;20160;-69
2022/12/15 11:27:27;;;;;;;47.97;22.15;;;;;;;-3.51;100.00;100013.03;5020527;28;20040;-73
2022/12/15 11:30:13;;;;;;;41.58;21.17;;;;;;;-3.38;100.00;100013.16;5004799;28;20038;-72
2022/12/15 11:32:45;;;;;;;45.08;22.80;;;;;;;-3.37;100.00;100004.41;5024127;28;20044;-75
2022/12/15 11:35:13;;;;;;;45.42;22.27;;;;;;;-3.29;100.00;100015.22;5018072;28;20431;-72
2022/12/15 11:37:44;;;;;;;42.70;21.98;;;;;;;-3.28;100.00;100003.84;5017581;28;20037;-74
2022/12/15 11:40:37;;;;;;;40.80;20.27;;;;;;;-3.27;100.00;100000.31;5017349;28;20037;-74
2022/12/15 11:43:24;;;;;;;40.25;20.58;;;;;;;-3.17;100.00;100016.25;5016384;28;20486;-70
2022/12/15 11:46:19;;;;;;;41.10;20.52;;;;;;;-3.12;100.00;100014.22;5008440;28;20165;-73
2022/12/15 11:48:57;;;;;;;43.88;20.38;;;;;;;-3.21;100.00;100008.63;5008386;28;20475;-70
2022/12/15 11:51:35;;;;;;;45.55;21.65;;;;;;;-3.14;100.00;100001.22;5008085;28;20030;-71
2022/12/15 11:54:24;;;;;;;42.75;20.85;;;;;;;-2.91;100.00;100020.72;5010598;28;20029;-70
2022/12/15 11:56:58;;;;;;;48.22;21.63;;;;;;;-2.80;100.00;100020.06;5010199;28;20227;-74
2022/12/15 11:59:42;;;;;;;50.47;23.77;;;;;;;-2.69;100.00;100014.16;5019202;28;20044;-75
2022/12/15 12:02:32;;;;;;;45.85;21.73;;;;;;;-2.76;100.00;100009.34;5010198;28;20041;-73
2022/12/15 12:05:39;;;;;;;41.42;20.98;;;;;;;-2.57;100.00;100016.88;5026461;28;20141;-76
2022/12/15 12:08:37;;;;;;;38.47;18.95;;;;;;;-2.50;100.00;100011.25;5026619;28;20052;-73
2022/12/15 12:11:15;;;;;;;45.40;21.83;;;;;;;-2.60;100.00;99997.91;5014878;28;20069;-71
2022/12/15 12:13:56;;;;;;;41.35;20.88;;;;;;;-2.51;100.00;99999.94;5008273;28;20065;-71
2022/12/15 12:16:42;;;;;;;39.58;20.83;;;;;;;-2.39;100.00;100009.66;5008482;28;20456;-70
2022/12/15 12:19:22;;;;;;;37.13;19.67;;;;;;;-2.28;100.00;100019.41;5007900;28;20029;-70
2022/12/15 12:21:52;;;;;;;48.85;20.98;;;;;;;-2.13;100.00;100020.22;5021667;28;20056;-70
2022/12/15 12:24:38;;;;;;;42.53;20.02;;;;;;;-2.13;100.00;100015.81;5008213;28;20397;-70
2022/12/15 12:27:15;;;;;;;47.95;20.38;;;;;;;-1.96;100.00;100022.56;5007559;28;20129;-74
2022/12/15 12:30:05;;;;;;;39.95;20.25;;;;;;;-1.84;100.00;100022.69;5010041;28;20124;-72
2022/12/15 12:32:36;;;;;;;45.72;22.58;;;;;;;-1.79;100.00;100029.28;5007639;28;20092;-73
2022/12/15 12:35:20;;;;;;;40.63;19.88;;;;;;;-1.83;100.00;100012.09;5006360;28;20053;-71
2022/12/15 12:37:58;;;;;;;40.67;19.60;;;;;;;-1.92;100.00;100004.84;5004722;28;20046;-74
2022/12/15 12:40:47;;;;;;;42.65;21.13;;;;;;;-1.85;100.00;100003.53;5002107;28;20107;-70
2022/12/15 12:43:37;;;;;;;37.60;18.65;;;;;;;-1.88;100.00;100001.09;5009692;28;20033;-70
2022/12/15 12:46:21;;;;;;;43.65;21.70;;;;;;;-1.84;100.00;100015.69;5009950;28;20423;-73
2022/12/15 12:48:58;;;;;;;40.10;20.65;;;;;;;-1.83;100.00;100019.13;5020009;28;20112;-74
2022/12/15 12:51:29;;;;;;;41.30;20.80;;;;;;;-1.93;100.00;100018.91;5017804;28;20045;-69
2022/12/15 12:53:55;;;;;;;32.35;18.33;;;;;;;-1.93;100.00;100032.81;5022768;28;20399;-74
2022/12/15 12:56:43;;;;;;;36.33;20.30;;;;;;;-1.94;100.00;100032.94;4998591;28;20029;-72
2022/12/15 12:59:27;;;;;;;42.95;20.67;;;;;;;-2.04;100.00;100030.03;4992353;28;20488;-71
2022/12/15 13:01:54;;;;;;;41.03;21.27;;;;;;;-1.98;100.00;100041.91;5019751;28;20036;-74
2022/12/15 13:04:29;;;;;;;47.08;21.02;;;;;;;-2.01;100.00;100042.13;5022451;28;20041;-74
2022/12/15 13:06:54;;;;;;;45.90;22.48;;;;;;;-1.92;100.00;100054.56;5002843;28;20502;-74
2022/12/15 13:09:20;;;;;;;48.83;22.60;;;;;;;-1.88;100.00;100057.84;5022434;28;20100;-72
2022/12/15 13:11:46;;;;;;;45.90;22.80;;;;;;;-1.88;100.00;100056.06;5019810;28;20049;-74
2022/12/15 13:14:18;;;;;;;44.97;22.20;;;;;;;-1.93;100.00;100058.97;5019848;28;20398;-74
2022/12/15 13:16:45;;;;;;;40.13;21.00;;;;;;;-1.93;100.00;100058.13;5020221;28;20131;-71
2022/12/15 13:19:12;;;;;;;44.75;21.50;;;;;;;-2.21;100.00;100036.38;4991886;28;20407;-74
2022/12/15 13:21:40;;;;;;;48.75;23.50;;;;;;;-2.23;100.00;100050.47;5020814;28;20083;-73
2022/12/15 13:24:18;;;;;;;50.20;22.75;;;;;;;-2.00;100.00;100064.72;5020893;28;20057;-72
2022/12/15 13:26:44;;;;;;;44.70;21.75;;;;;;;-1.98;100.00;100068.06;5004840;28;20224;-70
2022/12/15 13:29:14;;;;;;;47.65;23.52;;;;;;;-2.10;100.00;100066.25;5021348;28;20041;-72
2022/12/15 13:31:45;;;;;;;48.30;22.23;;;;;;;-2.09;100.00;100073.16;5002997;28;20059;-74
2022/12/15 13:34:17;;;;;;;39.95;22.30;;;;;;;-2.00;100.00;100089.09;5021321;28;20065;-73
2022/12/15 13:36:51;;;;;;;59.60;28.05;;;;;;;-1.95;100.00;100094.84;5019790;28;20036;-73
2022/12/15 13:39:17;;;;;;;54.65;26.17;;;;;;;-2.26;100.00;100082.91;5016458;28;20037;-74
2022/12/15 13:41:45;;;;;;;52.10;26.30;;;;;;;-2.30;100.00;100084.03;5019441;28;20041;-73
2022/12/15 13:44:24;;;;;;;48.42;25.98;;;;;;;-2.31;100.00;100089.38;5021312;28;20340;-72
2022/12/15 13:46:52;;;;;;;58.28;26.60;;;;;;;-2.40;100.00;100099.44;5018921;28;20033;-74
2022/12/15 13:49:36;;;;;;;54.53;26.00;;;;;;;-2.35;100.00;100107.00;5016192;28;20038;-74
2022/12/15 13:52:10;;;;;;;61.67;27.73;;;;;;;-2.30;100.00;100119.78;5003396;28;20030;-74
2022/12/15 13:54:41;;;;;;;40.47;20.38;;;;;;;-2.43;100.00;100111.88;5003093;28;20046;-74
2022/12/15 13:57:16;;;;;;;60.70;29.38;;;;;;;-2.50;100.00;100115.81;5007473;28;20125;-73
2022/12/15 13:59:45;;;;;;;67.60;30.23;;;;;;;-2.64;100.00;100111.44;5001946;28;20541;-73
2022/12/15 14:02:25;;;;;;;75.88;32.42;;;;;;;-2.57;100.00;100124.03;5010391;28;20077;-72
2022/12/15 14:05:08;;;;;;;63.03;30.58;;;;;;;-2.59;100.00;100144.19;5021165;28;20041;-74
2022/12/15 14:07:34;;;;;;;61.85;28.73;;;;;;;-2.52;100.00;100143.81;5016651;28;20116;-73
2022/12/15 14:10:00;;;;;;;64.25;30.45;;;;;;;-2.53;100.00;100145.56;5017812;28;20547;-73
2022/12/15 14:12:25;;;;;;;74.05;33.58;;;;;;;-2.46;100.00;100153.88;5021099;28;20044;-73